sensor_id;sensor_type;location;lat;lon;timestamp;temperature;humidity
2174;DHT22;1093;51.424;11.764;2023-09-08T00:01:48;16.70;1.40
2174;DHT22;1093;51.424;11.764;2023-09-08T00:04:15;16.60;1.40
2174;DHT22;1093;51.424;11.764;2023-09-08T00:06:41;16.60;1.40
2174;DHT22;1093;51.424;11.764;2023-09-08T00:09:10;16.60;1.40
2174;DHT22;1093;51.424;11.764;2023-09-08T00:11:36;16.60;1.40
2174;DHT22;1093;51.424;11.764;2023-09-08T00:14:04;16.60;1.40
2174;DHT22;1093;51.424;11.764;2023-09-08T00:16:30;16.60;1.40
2174;DHT22;1093;51.424;11.764;2023-09-08T00:18:57;16.50;1.40
2174;DHT22;1093;51.424;11.764;2023-09-08T00:21:25;16.40;1.40
2174;DHT22;1093;51.424;11.764;2023-09-08T00:23:53;16.50;1.40
2174;DHT22;1093;51.424;11.764;2023-09-08T00:26:22;16.40;1.40
2174;DHT22;1093;51.424;11.764;2023-09-08T00:28:48;16.30;1.40
2174;DHT22;1093;51.424;11.764;2023-09-08T00:31:15;16.30;1.40
2174;DHT22;1093;51.424;11.764;2023-09-08T00:33:44;16.30;1.40
2174;DHT22;1093;51.424;11.764;2023-09-08T00:36:10;16.20;1.40
2174;DHT22;1093;51.424;11.764;2023-09-08T00:38:37;16.20;1.40
2174;DHT22;1093;51.424;11.764;2023-09-08T00:41:07;16.20;1.40
2174;DHT22;1093;51.424;11.764;2023-09-08T00:43:37;16.10;1.40
2174;DHT22;1093;51.424;11.764;2023-09-08T00:46:04;16.00;1.40
2174;DHT22;1093;51.424;11.764;2023-09-08T00:48:32;16.00;1.40
2174;DHT22;1093;51.424;11.764;2023-09-08T00:51:00;16.00;1.40
2174;DHT22;1093;51.424;11.764;2023-09-08T00:53:28;15.90;1.40
2174;DHT22;1093;51.424;11.764;2023-09-08T00:55:56;15.90;1.40
2174;DHT22;1093;51.424;11.764;2023-09-08T00:58:23;15.80;1.40
2174;DHT22;1093;51.424;11.764;2023-09-08T01:00:51;15.80;1.40
2174;DHT22;1093;51.424;11.764;2023-09-08T01:03:18;15.70;1.40
2174;DHT22;1093;51.424;11.764;2023-09-08T01:05:45;15.70;1.40
2174;DHT22;1093;51.424;11.764;2023-09-08T01:08:13;15.70;1.40
2174;DHT22;1093;51.424;11.764;2023-09-08T01:10:41;15.60;1.40
2174;DHT22;1093;51.424;11.764;2023-09-08T01:13:08;15.60;1.40
2174;DHT22;1093;51.424;11.764;2023-09-08T01:15:35;15.60;1.40
2174;DHT22;1093;51.424;11.764;2023-09-08T01:18:04;15.50;1.40
2174;DHT22;1093;51.424;11.764;2023-09-08T01:23:19;15.50;1.40
2174;DHT22;1093;51.424;11.764;2023-09-08T01:25:52;15.50;1.40
2174;DHT22;1093;51.424;11.764;2023-09-08T01:28:20;15.40;1.40
2174;DHT22;1093;51.424;11.764;2023-09-08T01:30:49;15.40;1.40
2174;DHT22;1093;51.424;11.764;2023-09-08T01:33:17;15.40;1.40
2174;DHT22;1093;51.424;11.764;2023-09-08T01:35:45;15.40;1.40
2174;DHT22;1093;51.424;11.764;2023-09-08T01:38:12;15.40;1.40
2174;DHT22;1093;51.424;11.764;2023-09-08T01:40:38;15.30;1.40
2174;DHT22;1093;51.424;11.764;2023-09-08T01:43:09;15.30;1.40
2174;DHT22;1093;51.424;11.764;2023-09-08T01:45:37;15.30;1.40
2174;DHT22;1093;51.424;11.764;2023-09-08T01:48:05;15.20;1.40
2174;DHT22;1093;51.424;11.764;2023-09-08T01:50:31;15.20;1.40
2174;DHT22;1093;51.424;11.764;2023-09-08T01:52:58;15.10;1.40
2174;DHT22;1093;51.424;11.764;2023-09-08T01:55:28;15.10;1.40
2174;DHT22;1093;51.424;11.764;2023-09-08T01:57:55;15.10;1.40
2174;DHT22;1093;51.424;11.764;2023-09-08T02:00:24;15.00;1.40
2174;DHT22;1093;51.424;11.764;2023-09-08T02:02:50;15.00;1.40
2174;DHT22;1093;51.424;11.764;2023-09-08T02:05:17;15.00;1.40
2174;DHT22;1093;51.424;11.764;2023-09-08T02:07:46;14.90;1.40
2174;DHT22;1093;51.424;11.764;2023-09-08T02:10:15;14.90;1.40
2174;DHT22;1093;51.424;11.764;2023-09-08T02:12:43;14.90;1.40
2174;DHT22;1093;51.424;11.764;2023-09-08T02:15:10;14.80;1.40
2174;DHT22;1093;51.424;11.764;2023-09-08T02:17:40;14.80;1.40
2174;DHT22;1093;51.424;11.764;2023-09-08T02:20:08;14.70;1.40
2174;DHT22;1093;51.424;11.764;2023-09-08T02:22:36;14.70;1.40
2174;DHT22;1093;51.424;11.764;2023-09-08T02:25:03;14.70;1.40
2174;DHT22;1093;51.424;11.764;2023-09-08T02:27:31;14.70;1.40
2174;DHT22;1093;51.424;11.764;2023-09-08T02:30:03;14.70;1.40
2174;DHT22;1093;51.424;11.764;2023-09-08T02:32:30;14.70;1.40
2174;DHT22;1093;51.424;11.764;2023-09-08T02:34:59;14.60;1.40
2174;DHT22;1093;51.424;11.764;2023-09-08T02:37:26;14.70;1.40
2174;DHT22;1093;51.424;11.764;2023-09-08T02:39:53;14.60;1.40
2174;DHT22;1093;51.424;11.764;2023-09-08T02:42:23;14.60;1.40
2174;DHT22;1093;51.424;11.764;2023-09-08T02:44:50;14.60;1.40
2174;DHT22;1093;51.424;11.764;2023-09-08T02:47:17;14.50;1.40
2174;DHT22;1093;51.424;11.764;2023-09-08T02:49:46;14.50;1.40
2174;DHT22;1093;51.424;11.764;2023-09-08T02:52:14;14.50;1.40
2174;DHT22;1093;51.424;11.764;2023-09-08T02:54:41;14.40;1.40
2174;DHT22;1093;51.424;11.764;2023-09-08T02:57:08;14.40;1.40
2174;DHT22;1093;51.424;11.764;2023-09-08T02:59:35;14.30;1.40
2174;DHT22;1093;51.424;11.764;2023-09-08T03:02:02;14.30;1.40
2174;DHT22;1093;51.424;11.764;2023-09-08T03:04:30;14.30;1.40
2174;DHT22;1093;51.424;11.764;2023-09-08T03:06:57;14.20;1.40
2174;DHT22;1093;51.424;11.764;2023-09-08T03:09:25;14.20;1.40
2174;DHT22;1093;51.424;11.764;2023-09-08T03:11:52;14.20;1.40
2174;DHT22;1093;51.424;11.764;2023-09-08T03:14:19;14.10;1.40
2174;DHT22;1093;51.424;11.764;2023-09-08T03:16:48;14.10;1.40
2174;DHT22;1093;51.424;11.764;2023-09-08T03:19:15;14.10;1.40
2174;DHT22;1093;51.424;11.764;2023-09-08T03:21:43;14.10;1.40
2174;DHT22;1093;51.424;11.764;2023-09-08T03:24:10;14.10;1.40
2174;DHT22;1093;51.424;11.764;2023-09-08T03:26:39;14.10;1.40
2174;DHT22;1093;51.424;11.764;2023-09-08T03:29:06;14.00;1.40
2174;DHT22;1093;51.424;11.764;2023-09-08T03:31:34;14.00;1.40
2174;DHT22;1093;51.424;11.764;2023-09-08T03:34:01;14.00;1.40
2174;DHT22;1093;51.424;11.764;2023-09-08T03:36:28;13.90;1.40
2174;DHT22;1093;51.424;11.764;2023-09-08T03:38:56;13.90;1.40
2174;DHT22;1093;51.424;11.764;2023-09-08T03:41:24;13.90;1.40
2174;DHT22;1093;51.424;11.764;2023-09-08T03:43:52;13.90;1.40
2174;DHT22;1093;51.424;11.764;2023-09-08T03:46:20;13.90;1.40
2174;DHT22;1093;51.424;11.764;2023-09-08T03:48:50;13.90;1.40
2174;DHT22;1093;51.424;11.764;2023-09-08T03:51:29;13.80;1.40
2174;DHT22;1093;51.424;11.764;2023-09-08T03:54:16;13.80;1.40
2174;DHT22;1093;51.424;11.764;2023-09-08T07:10:54;15.60;1.40
2174;DHT22;1093;51.424;11.764;2023-09-08T07:30:21;16.30;1.40
2174;DHT22;1093;51.424;11.764;2023-09-08T07:36:17;16.50;1.40
2174;DHT22;1093;51.424;11.764;2023-09-08T07:39:35;16.70;1.40
2174;DHT22;1093;51.424;11.764;2023-09-08T07:42:10;16.80;1.40
2174;DHT22;1093;51.424;11.764;2023-09-08T07:45:05;16.90;1.40
2174;DHT22;1093;51.424;11.764;2023-09-08T07:47:44;17.10;1.40
2174;DHT22;1093;51.424;11.764;2023-09-08T07:50:20;17.20;1.40
2174;DHT22;1093;51.424;11.764;2023-09-08T07:53:20;17.30;1.40
2174;DHT22;1093;51.424;11.764;2023-09-08T07:56:08;17.40;1.40
2174;DHT22;1093;51.424;11.764;2023-09-08T07:59:24;17.50;1.40
2174;DHT22;1093;51.424;11.764;2023-09-08T08:02:20;17.70;1.40
2174;DHT22;1093;51.424;11.764;2023-09-08T08:07:35;18.00;1.40
2174;DHT22;1093;51.424;11.764;2023-09-08T08:10:27;18.00;1.40
2174;DHT22;1093;51.424;11.764;2023-09-08T08:13:03;18.20;1.40
2174;DHT22;1093;51.424;11.764;2023-09-08T08:15:55;18.30;1.40
2174;DHT22;1093;51.424;11.764;2023-09-08T08:22:13;18.60;1.40
2174;DHT22;1093;51.424;11.764;2023-09-08T08:25:14;18.70;1.40
2174;DHT22;1093;51.424;11.764;2023-09-08T08:27:44;19.00;1.40
2174;DHT22;1093;51.424;11.764;2023-09-08T08:30:24;19.10;1.40
2174;DHT22;1093;51.424;11.764;2023-09-08T08:33:25;19.30;1.40
2174;DHT22;1093;51.424;11.764;2023-09-08T08:35:55;19.50;1.40
2174;DHT22;1093;51.424;11.764;2023-09-08T08:38:24;19.70;1.40
2174;DHT22;1093;51.424;11.764;2023-09-08T08:44:20;20.20;1.40
2174;DHT22;1093;51.424;11.764;2023-09-08T08:50:38;20.70;1.40
2174;DHT22;1093;51.424;11.764;2023-09-08T08:56:30;21.20;1.40
2174;DHT22;1093;51.424;11.764;2023-09-08T09:03:10;21.80;1.40
2174;DHT22;1093;51.424;11.764;2023-09-08T09:05:39;22.10;1.40
2174;DHT22;1093;51.424;11.764;2023-09-08T09:08:31;22.40;1.40
2174;DHT22;1093;51.424;11.764;2023-09-08T09:18:05;22.90;1.40
2174;DHT22;1093;51.424;11.764;2023-09-08T09:20:39;23.00;1.40
2174;DHT22;1093;51.424;11.764;2023-09-08T09:26:32;23.30;1.40
2174;DHT22;1093;51.424;11.764;2023-09-08T09:29:28;23.40;1.40
2174;DHT22;1093;51.424;11.764;2023-09-08T09:32:07;23.50;1.40
2174;DHT22;1093;51.424;11.764;2023-09-08T09:34:47;23.70;1.40
2174;DHT22;1093;51.424;11.764;2023-09-08T09:40:28;24.00;1.40
2174;DHT22;1093;51.424;11.764;2023-09-08T09:43:20;24.00;1.40
2174;DHT22;1093;51.424;11.764;2023-09-08T09:46:21;24.20;1.40
2174;DHT22;1093;51.424;11.764;2023-09-08T09:48:51;24.30;1.40
2174;DHT22;1093;51.424;11.764;2023-09-08T09:51:43;24.40;1.40
2174;DHT22;1093;51.424;11.764;2023-09-08T09:54:25;24.50;1.40
2174;DHT22;1093;51.424;11.764;2023-09-08T09:57:07;24.70;1.40
2174;DHT22;1093;51.424;11.764;2023-09-08T09:59:51;24.80;1.40
2174;DHT22;1093;51.424;11.764;2023-09-08T10:02:33;24.80;1.40
2174;DHT22;1093;51.424;11.764;2023-09-08T10:05:36;24.90;1.40
2174;DHT22;1093;51.424;11.764;2023-09-08T10:08:30;24.90;1.40
2174;DHT22;1093;51.424;11.764;2023-09-08T10:11:09;25.00;1.40
2174;DHT22;1093;51.424;11.764;2023-09-08T10:14:08;25.10;1.40
2174;DHT22;1093;51.424;11.764;2023-09-08T10:17:01;25.10;1.40
2174;DHT22;1093;51.424;11.764;2023-09-08T10:19:55;25.30;1.40
2174;DHT22;1093;51.424;11.764;2023-09-08T10:22:59;25.40;1.40
2174;DHT22;1093;51.424;11.764;2023-09-08T10:26:12;25.60;1.40
2174;DHT22;1093;51.424;11.764;2023-09-08T10:29:07;25.60;1.40
2174;DHT22;1093;51.424;11.764;2023-09-08T10:32:02;25.70;1.40
2174;DHT22;1093;51.424;11.764;2023-09-08T10:34:56;25.70;1.40
2174;DHT22;1093;51.424;11.764;2023-09-08T10:40:48;25.90;1.40
2174;DHT22;1093;51.424;11.764;2023-09-08T10:43:54;26.00;1.40
2174;DHT22;1093;51.424;11.764;2023-09-08T10:47:32;26.20;1.40
2174;DHT22;1093;51.424;11.764;2023-09-08T10:49:40;26.30;1.40
2174;DHT22;1093;51.424;11.764;2023-09-08T10:52:38;26.30;1.40
2174;DHT22;1093;51.424;11.764;2023-09-08T10:55:46;26.40;1.40
2174;DHT22;1093;51.424;11.764;2023-09-08T10:59:00;26.50;1.40
2174;DHT22;1093;51.424;11.764;2023-09-08T11:01:50;26.60;1.40
2174;DHT22;1093;51.424;11.764;2023-09-08T11:04:21;26.50;1.40
2174;DHT22;1093;51.424;11.764;2023-09-08T11:06:49;26.60;1.40
2174;DHT22;1093;51.424;11.764;2023-09-08T11:09:24;26.70;1.40
2174;DHT22;1093;51.424;11.764;2023-09-08T11:13:11;26.80;1.40
2174;DHT22;1093;51.424;11.764;2023-09-08T11:15:28;26.80;1.40
2174;DHT22;1093;51.424;11.764;2023-09-08T11:18:28;26.80;1.40
2174;DHT22;1093;51.424;11.764;2023-09-08T11:21:21;26.80;1.40
2174;DHT22;1093;51.424;11.764;2023-09-08T11:24:16;26.80;1.40
2174;DHT22;1093;51.424;11.764;2023-09-08T11:26:58;26.90;1.40
2174;DHT22;1093;51.424;11.764;2023-09-08T11:29:35;27.00;1.40
2174;DHT22;1093;51.424;11.764;2023-09-08T11:32:51;27.00;1.40
2174;DHT22;1093;51.424;11.764;2023-09-08T11:36:10;27.00;1.40
2174;DHT22;1093;51.424;11.764;2023-09-08T11:38:53;27.10;1.40
2174;DHT22;1093;51.424;11.764;2023-09-08T11:41:49;27.10;1.40
2174;DHT22;1093;51.424;11.764;2023-09-08T11:45:29;27.00;1.40
2174;DHT22;1093;51.424;11.764;2023-09-08T11:58:26;27.30;1.40
2174;DHT22;1093;51.424;11.764;2023-09-08T12:01:22;27.30;1.40
2174;DHT22;1093;51.424;11.764;2023-09-08T12:04:22;27.40;1.40
2174;DHT22;1093;51.424;11.764;2023-09-08T12:06:54;27.60;1.40
2174;DHT22;1093;51.424;11.764;2023-09-08T12:09:51;27.60;1.40
2174;DHT22;1093;51.424;11.764;2023-09-08T12:13:05;27.60;1.40
2174;DHT22;1093;51.424;11.764;2023-09-08T12:15:41;27.70;1.40
2174;DHT22;1093;51.424;11.764;2023-09-08T12:22:00;27.60;1.40
2174;DHT22;1093;51.424;11.764;2023-09-08T12:24:50;27.70;1.40
2174;DHT22;1093;51.424;11.764;2023-09-08T12:28:07;27.70;1.40
2174;DHT22;1093;51.424;11.764;2023-09-08T12:43:45;27.90;1.40
2174;DHT22;1093;51.424;11.764;2023-09-08T12:46:43;28.00;1.40
2174;DHT22;1093;51.424;11.764;2023-09-08T12:49:21;28.00;1.40
2174;DHT22;1093;51.424;11.764;2023-09-08T12:52:08;28.20;1.40
2174;DHT22;1093;51.424;11.764;2023-09-08T12:54:52;28.30;1.40
2174;DHT22;1093;51.424;11.764;2023-09-08T12:57:27;28.30;1.40
2174;DHT22;1093;51.424;11.764;2023-09-08T13:00:18;28.40;1.40
2174;DHT22;1093;51.424;11.764;2023-09-08T13:03:12;28.40;1.40
2174;DHT22;1093;51.424;11.764;2023-09-08T13:07:01;28.40;1.40
2174;DHT22;1093;51.424;11.764;2023-09-08T13:09:22;28.60;1.40
2174;DHT22;1093;51.424;11.764;2023-09-08T13:12:11;28.60;1.40
2174;DHT22;1093;51.424;11.764;2023-09-08T13:14:46;28.70;1.40
2174;DHT22;1093;51.424;11.764;2023-09-08T13:17:36;28.70;1.40
2174;DHT22;1093;51.424;11.764;2023-09-08T13:20:22;28.80;1.40
2174;DHT22;1093;51.424;11.764;2023-09-08T13:23:18;28.90;1.40
2174;DHT22;1093;51.424;11.764;2023-09-08T13:25:54;28.90;1.40
2174;DHT22;1093;51.424;11.764;2023-09-08T13:28:49;29.00;1.40
2174;DHT22;1093;51.424;11.764;2023-09-08T13:31:54;29.10;1.40
2174;DHT22;1093;51.424;11.764;2023-09-08T13:34:43;29.20;1.40
2174;DHT22;1093;51.424;11.764;2023-09-08T13:37:16;29.20;1.40
2174;DHT22;1093;51.424;11.764;2023-09-08T13:39:53;29.20;1.40
2174;DHT22;1093;51.424;11.764;2023-09-08T13:42:23;29.30;1.40
2174;DHT22;1093;51.424;11.764;2023-09-08T13:45:03;29.30;1.40
2174;DHT22;1093;51.424;11.764;2023-09-08T13:48:15;29.40;1.40
2174;DHT22;1093;51.424;11.764;2023-09-08T13:51:10;29.40;1.40
2174;DHT22;1093;51.424;11.764;2023-09-08T13:54:16;29.50;1.40
2174;DHT22;1093;51.424;11.764;2023-09-08T14:00:36;29.60;1.40
2174;DHT22;1093;51.424;11.764;2023-09-08T14:03:21;29.60;1.40
2174;DHT22;1093;51.424;11.764;2023-09-08T14:12:58;29.90;1.40
2174;DHT22;1093;51.424;11.764;2023-09-08T14:15:43;29.90;1.40
2174;DHT22;1093;51.424;11.764;2023-09-08T14:18:24;30.00;1.40
2174;DHT22;1093;51.424;11.764;2023-09-08T14:24:21;30.20;1.40
2174;DHT22;1093;51.424;11.764;2023-09-08T14:27:18;30.10;1.40
2174;DHT22;1093;51.424;11.764;2023-09-08T14:29:54;30.10;1.40
2174;DHT22;1093;51.424;11.764;2023-09-08T14:32:57;30.00;1.40
2174;DHT22;1093;51.424;11.764;2023-09-08T14:36:09;30.10;1.40
2174;DHT22;1093;51.424;11.764;2023-09-08T14:38:50;30.20;1.40
2174;DHT22;1093;51.424;11.764;2023-09-08T14:42:02;30.10;1.40
2174;DHT22;1093;51.424;11.764;2023-09-08T14:45:17;30.10;1.40
2174;DHT22;1093;51.424;11.764;2023-09-08T14:48:11;30.20;1.40
2174;DHT22;1093;51.424;11.764;2023-09-08T14:51:23;30.30;1.40
2174;DHT22;1093;51.424;11.764;2023-09-08T14:54:23;30.30;1.40
2174;DHT22;1093;51.424;11.764;2023-09-08T14:57:19;30.30;1.40
2174;DHT22;1093;51.424;11.764;2023-09-08T15:00:37;30.50;1.40
2174;DHT22;1093;51.424;11.764;2023-09-08T15:03:36;30.40;1.40
2174;DHT22;1093;51.424;11.764;2023-09-08T15:06:38;30.40;1.40
2174;DHT22;1093;51.424;11.764;2023-09-08T15:09:52;30.30;1.40
2174;DHT22;1093;51.424;11.764;2023-09-08T15:12:33;30.40;1.40
2174;DHT22;1093;51.424;11.764;2023-09-08T15:15:17;30.40;1.40
2174;DHT22;1093;51.424;11.764;2023-09-08T15:17:57;30.40;1.40
2174;DHT22;1093;51.424;11.764;2023-09-08T15:20:30;30.30;1.40
2174;DHT22;1093;51.424;11.764;2023-09-08T15:23:08;30.30;1.40
2174;DHT22;1093;51.424;11.764;2023-09-08T15:29:01;30.30;1.40
2174;DHT22;1093;51.424;11.764;2023-09-08T15:31:48;30.30;1.40
2174;DHT22;1093;51.424;11.764;2023-09-08T15:41:17;30.00;1.40
2174;DHT22;1093;51.424;11.764;2023-09-08T15:43:49;30.00;1.40
2174;DHT22;1093;51.424;11.764;2023-09-08T15:46:48;29.90;1.40
2174;DHT22;1093;51.424;11.764;2023-09-08T15:49:50;29.90;1.40
2174;DHT22;1093;51.424;11.764;2023-09-08T15:55:34;29.70;1.40
2174;DHT22;1093;51.424;11.764;2023-09-08T16:01:24;29.60;1.40
2174;DHT22;1093;51.424;11.764;2023-09-08T16:04:14;29.60;1.40
2174;DHT22;1093;51.424;11.764;2023-09-08T16:10:21;29.50;1.40
2174;DHT22;1093;51.424;11.764;2023-09-08T16:12:55;29.40;1.40
2174;DHT22;1093;51.424;11.764;2023-09-08T16:19:04;29.30;1.40
2174;DHT22;1093;51.424;11.764;2023-09-08T16:22:07;29.20;1.40
2174;DHT22;1093;51.424;11.764;2023-09-08T16:24:51;29.10;1.40
2174;DHT22;1093;51.424;11.764;2023-09-08T16:27:59;29.10;1.40
2174;DHT22;1093;51.424;11.764;2023-09-08T16:30:46;29.10;1.40
2174;DHT22;1093;51.424;11.764;2023-09-08T16:33:13;28.90;1.40
2174;DHT22;1093;51.424;11.764;2023-09-08T16:35:43;28.90;1.40
2174;DHT22;1093;51.424;11.764;2023-09-08T16:39:00;28.80;1.40
2174;DHT22;1093;51.424;11.764;2023-09-08T16:45:18;28.70;1.40
2174;DHT22;1093;51.424;11.764;2023-09-08T16:48:16;28.60;1.40
2174;DHT22;1093;51.424;11.764;2023-09-08T16:51:07;28.50;1.40
2174;DHT22;1093;51.424;11.764;2023-09-08T16:55:30;28.40;1.40
2174;DHT22;1093;51.424;11.764;2023-09-08T16:57:35;28.30;1.40
2174;DHT22;1093;51.424;11.764;2023-09-08T17:00:26;28.10;1.40
2174;DHT22;1093;51.424;11.764;2023-09-08T17:03:39;27.90;1.40
2174;DHT22;1093;51.424;11.764;2023-09-08T17:09:36;27.70;1.40
2174;DHT22;1093;51.424;11.764;2023-09-08T17:12:38;27.50;1.40
2174;DHT22;1093;51.424;11.764;2023-09-08T17:16:17;27.30;1.40
2174;DHT22;1093;51.424;11.764;2023-09-08T17:19:05;27.10;1.40
2174;DHT22;1093;51.424;11.764;2023-09-08T17:25:38;26.80;1.40
2174;DHT22;1093;51.424;11.764;2023-09-08T17:28:35;26.60;1.40
2174;DHT22;1093;51.424;11.764;2023-09-08T17:31:44;26.40;1.40
2174;DHT22;1093;51.424;11.764;2023-09-08T17:35:34;26.20;1.40
2174;DHT22;1093;51.424;11.764;2023-09-08T17:44:51;25.70;1.40
2174;DHT22;1093;51.424;11.764;2023-09-08T17:47:38;25.50;1.40
2174;DHT22;1093;51.424;11.764;2023-09-08T17:50:51;25.40;1.40
2174;DHT22;1093;51.424;11.764;2023-09-08T17:53:26;25.20;1.40
2174;DHT22;1093;51.424;11.764;2023-09-08T17:56:31;25.10;1.40
2174;DHT22;1093;51.424;11.764;2023-09-08T17:59:16;24.90;1.40
2174;DHT22;1093;51.424;11.764;2023-09-08T18:02:00;24.80;1.40
2174;DHT22;1093;51.424;11.764;2023-09-08T18:05:14;24.70;1.40
2174;DHT22;1093;51.424;11.764;2023-09-08T18:13:56;24.30;1.40
2174;DHT22;1093;51.424;11.764;2023-09-08T18:23:15;23.80;1.40
2174;DHT22;1093;51.424;11.764;2023-09-08T18:27:18;23.60;1.40
2174;DHT22;1093;51.424;11.764;2023-09-08T18:32:09;23.20;1.40
2174;DHT22;1093;51.424;11.764;2023-09-08T18:34:54;23.10;1.40
2174;DHT22;1093;51.424;11.764;2023-09-08T20:04:14;20.10;1.40
2174;DHT22;1093;51.424;11.764;2023-09-08T20:06:42;19.70;1.40
2174;DHT22;1093;51.424;11.764;2023-09-08T20:09:10;19.60;1.40
2174;DHT22;1093;51.424;11.764;2023-09-08T20:11:39;19.50;1.40
2174;DHT22;1093;51.424;11.764;2023-09-08T20:14:06;19.40;1.40
2174;DHT22;1093;51.424;11.764;2023-09-08T20:16:33;19.40;1.40
2174;DHT22;1093;51.424;11.764;2023-09-08T20:19:01;19.30;1.40
2174;DHT22;1093;51.424;11.764;2023-09-08T20:21:31;19.20;1.40
2174;DHT22;1093;51.424;11.764;2023-09-08T20:23:58;19.20;1.40
2174;DHT22;1093;51.424;11.764;2023-09-08T20:26:27;19.10;1.40
2174;DHT22;1093;51.424;11.764;2023-09-08T20:28:53;19.10;1.40
2174;DHT22;1093;51.424;11.764;2023-09-08T20:31:20;19.00;1.40
2174;DHT22;1093;51.424;11.764;2023-09-08T20:33:48;19.00;1.40
2174;DHT22;1093;51.424;11.764;2023-09-08T20:36:16;18.90;1.40
2174;DHT22;1093;51.424;11.764;2023-09-08T20:42:06;18.70;1.40
2174;DHT22;1093;51.424;11.764;2023-09-08T20:44:34;18.70;1.40
2174;DHT22;1093;51.424;11.764;2023-09-08T20:47:01;18.50;1.40
2174;DHT22;1093;51.424;11.764;2023-09-08T20:49:28;18.50;1.40
2174;DHT22;1093;51.424;11.764;2023-09-08T20:51:55;18.40;1.40
2174;DHT22;1093;51.424;11.764;2023-09-08T20:54:21;18.40;1.40
2174;DHT22;1093;51.424;11.764;2023-09-08T20:56:48;18.30;1.40
2174;DHT22;1093;51.424;11.764;2023-09-08T20:59:17;18.30;1.40
2174;DHT22;1093;51.424;11.764;2023-09-08T21:01:43;18.20;1.40
2174;DHT22;1093;51.424;11.764;2023-09-08T21:04:10;18.10;1.40
2174;DHT22;1093;51.424;11.764;2023-09-08T21:06:37;18.10;1.40
2174;DHT22;1093;51.424;11.764;2023-09-08T21:09:04;18.00;1.40
2174;DHT22;1093;51.424;11.764;2023-09-08T21:11:32;18.00;1.40
2174;DHT22;1093;51.424;11.764;2023-09-08T21:14:02;17.90;1.40
2174;DHT22;1093;51.424;11.764;2023-09-08T21:16:30;17.80;1.40
2174;DHT22;1093;51.424;11.764;2023-09-08T21:18:57;17.80;1.40
2174;DHT22;1093;51.424;11.764;2023-09-08T21:21:23;17.80;1.40
2174;DHT22;1093;51.424;11.764;2023-09-08T21:23:50;17.70;1.40
2174;DHT22;1093;51.424;11.764;2023-09-08T21:26:17;17.70;1.40
2174;DHT22;1093;51.424;11.764;2023-09-08T21:28:44;17.60;1.40
2174;DHT22;1093;51.424;11.764;2023-09-08T21:31:11;17.60;1.40
2174;DHT22;1093;51.424;11.764;2023-09-08T21:33:40;17.50;1.40
2174;DHT22;1093;51.424;11.764;2023-09-08T21:36:08;17.50;1.40
2174;DHT22;1093;51.424;11.764;2023-09-08T21:38:37;17.50;1.40
2174;DHT22;1093;51.424;11.764;2023-09-08T21:41:08;17.40;1.40
2174;DHT22;1093;51.424;11.764;2023-09-08T21:43:35;17.40;1.40
2174;DHT22;1093;51.424;11.764;2023-09-08T21:46:03;17.40;1.40
2174;DHT22;1093;51.424;11.764;2023-09-08T21:48:32;17.30;1.40
2174;DHT22;1093;51.424;11.764;2023-09-08T21:51:01;17.30;1.40
2174;DHT22;1093;51.424;11.764;2023-09-08T21:53:28;17.20;1.40
2174;DHT22;1093;51.424;11.764;2023-09-08T21:55:54;17.30;1.40
2174;DHT22;1093;51.424;11.764;2023-09-08T21:58:21;17.20;1.40
2174;DHT22;1093;51.424;11.764;2023-09-08T22:00:48;17.10;1.40
2174;DHT22;1093;51.424;11.764;2023-09-08T22:03:15;17.10;1.40
2174;DHT22;1093;51.424;11.764;2023-09-08T22:05:42;17.10;1.40
2174;DHT22;1093;51.424;11.764;2023-09-08T22:08:10;17.00;1.40
2174;DHT22;1093;51.424;11.764;2023-09-08T22:10:37;17.00;1.40
2174;DHT22;1093;51.424;11.764;2023-09-08T22:13:04;16.90;1.40
2174;DHT22;1093;51.424;11.764;2023-09-08T22:15:32;16.90;1.40
2174;DHT22;1093;51.424;11.764;2023-09-08T22:17:59;16.90;1.40
2174;DHT22;1093;51.424;11.764;2023-09-08T22:20:26;16.90;1.40
2174;DHT22;1093;51.424;11.764;2023-09-08T22:22:53;16.80;1.40
2174;DHT22;1093;51.424;11.764;2023-09-08T22:25:25;16.80;1.40
2174;DHT22;1093;51.424;11.764;2023-09-08T22:27:51;16.70;1.40
2174;DHT22;1093;51.424;11.764;2023-09-08T22:30:20;16.60;1.40
2174;DHT22;1093;51.424;11.764;2023-09-08T22:32:47;16.60;1.40
2174;DHT22;1093;51.424;11.764;2023-09-08T22:35:14;16.50;1.40
2174;DHT22;1093;51.424;11.764;2023-09-08T22:37:41;16.50;1.40
2174;DHT22;1093;51.424;11.764;2023-09-08T22:40:08;16.50;1.40
2174;DHT22;1093;51.424;11.764;2023-09-08T22:42:38;16.40;1.40
2174;DHT22;1093;51.424;11.764;2023-09-08T22:45:08;16.40;1.40
2174;DHT22;1093;51.424;11.764;2023-09-08T22:47:35;16.30;1.40
2174;DHT22;1093;51.424;11.764;2023-09-08T22:50:04;16.30;1.40
2174;DHT22;1093;51.424;11.764;2023-09-08T22:52:35;16.30;1.40
2174;DHT22;1093;51.424;11.764;2023-09-08T22:55:02;16.30;1.40
2174;DHT22;1093;51.424;11.764;2023-09-08T22:57:30;16.30;1.40
2174;DHT22;1093;51.424;11.764;2023-09-08T22:59:58;16.20;1.40
2174;DHT22;1093;51.424;11.764;2023-09-08T23:02:25;16.10;1.40
2174;DHT22;1093;51.424;11.764;2023-09-08T23:04:52;16.20;1.40
2174;DHT22;1093;51.424;11.764;2023-09-08T23:07:19;16.00;1.40
2174;DHT22;1093;51.424;11.764;2023-09-08T23:09:47;16.00;1.40
2174;DHT22;1093;51.424;11.764;2023-09-08T23:12:14;15.90;1.40
2174;DHT22;1093;51.424;11.764;2023-09-08T23:14:41;15.90;1.40
2174;DHT22;1093;51.424;11.764;2023-09-08T23:17:09;16.00;1.40
2174;DHT22;1093;51.424;11.764;2023-09-08T23:19:36;15.90;1.40
2174;DHT22;1093;51.424;11.764;2023-09-08T23:22:03;15.80;1.40
2174;DHT22;1093;51.424;11.764;2023-09-08T23:24:32;15.80;1.40
2174;DHT22;1093;51.424;11.764;2023-09-08T23:26:59;15.70;1.40
2174;DHT22;1093;51.424;11.764;2023-09-08T23:29:26;15.70;1.40
2174;DHT22;1093;51.424;11.764;2023-09-08T23:31:53;15.60;1.40
2174;DHT22;1093;51.424;11.764;2023-09-08T23:34:24;15.60;1.40
2174;DHT22;1093;51.424;11.764;2023-09-08T23:36:51;15.60;1.40
2174;DHT22;1093;51.424;11.764;2023-09-08T23:39:18;15.50;1.40
2174;DHT22;1093;51.424;11.764;2023-09-08T23:41:45;15.50;1.40
2174;DHT22;1093;51.424;11.764;2023-09-08T23:44:12;15.50;1.40
2174;DHT22;1093;51.424;11.764;2023-09-08T23:46:38;15.40;1.40
2174;DHT22;1093;51.424;11.764;2023-09-08T23:49:05;15.40;1.40
2174;DHT22;1093;51.424;11.764;2023-09-08T23:51:34;15.40;1.40
2174;DHT22;1093;51.424;11.764;2023-09-08T23:54:02;15.30;1.40
2174;DHT22;1093;51.424;11.764;2023-09-08T23:56:29;15.30;1.40
2174;DHT22;1093;51.424;11.764;2023-09-08T23:58:58;15.30;1.40
